createdAt,value
2019-03-22T00:00:48.152Z,73.50
2019-03-22T00:03:53.822Z,73.50
2019-03-22T00:06:59.372Z,73.70
2019-03-22T00:10:05.202Z,74.40
2019-03-22T00:13:10.922Z,74.90
2019-03-22T00:16:16.572Z,75.00
2019-03-22T00:19:22.196Z,75.30
2019-03-22T00:22:27.864Z,75.40
2019-03-22T00:25:33.495Z,76.30
2019-03-22T00:28:39.105Z,75.90
2019-03-22T00:31:44.628Z,75.90
2019-03-22T00:34:50.301Z,75.90
2019-03-22T00:37:55.969Z,76.10
2019-03-22T00:41:01.486Z,76.30
2019-03-22T00:44:07.092Z,76.30
2019-03-22T00:47:12.711Z,76.50
2019-03-22T00:50:18.353Z,76.40
2019-03-22T00:53:23.961Z,76.60
2019-03-22T00:56:29.544Z,76.70
2019-03-22T00:59:35.149Z,76.50
2019-03-22T01:02:40.812Z,76.00
2019-03-22T01:05:46.480Z,75.90
2019-03-22T01:08:52.471Z,75.90
2019-03-22T01:11:58.055Z,76.00
2019-03-22T01:15:04.085Z,76.20
2019-03-22T01:18:09.689Z,76.40
2019-03-22T01:21:15.433Z,76.60
2019-03-22T01:24:21.042Z,76.80
2019-03-22T01:27:26.640Z,76.90
2019-03-22T01:30:34.042Z,77.10
2019-03-22T01:33:39.617Z,77.90
2019-03-22T01:36:45.356Z,77.50
2019-03-22T01:39:51.038Z,77.90
2019-03-22T01:42:59.248Z,78.10
2019-03-22T01:46:04.976Z,78.40
2019-03-22T01:49:10.638Z,78.50
2019-03-22T01:52:16.224Z,78.70
2019-03-22T01:55:21.743Z,79.20
2019-03-22T01:58:27.250Z,79.40
2019-03-22T02:01:32.795Z,79.50
2019-03-22T02:04:38.458Z,80.00
2019-03-22T02:07:44.131Z,80.10
2019-03-22T02:10:49.643Z,80.30
2019-03-22T02:13:55.216Z,80.20
2019-03-22T02:17:00.794Z,80.20
2019-03-22T02:20:07.568Z,80.40
2019-03-22T02:23:13.136Z,81.40
2019-03-22T02:26:18.777Z,80.90
2019-03-22T02:29:25.868Z,81.10
2019-03-22T02:32:31.392Z,81.10
2019-03-22T02:35:37.105Z,81.90
2019-03-22T02:38:42.745Z,81.10
2019-03-22T02:41:48.244Z,81.10
2019-03-22T02:44:53.933Z,81.20
2019-03-22T02:47:59.494Z,81.40
2019-03-22T02:51:05.148Z,81.70
2019-03-22T02:54:10.769Z,82.10
2019-03-22T02:57:16.401Z,82.30
2019-03-22T03:00:22.064Z,82.50
2019-03-22T03:03:27.787Z,83.80
2019-03-22T03:06:33.691Z,83.50
2019-03-22T03:09:39.208Z,83.60
2019-03-22T03:12:44.872Z,83.60
2019-03-22T03:15:50.462Z,84.50
2019-03-22T03:18:55.989Z,83.80
2019-03-22T03:22:01.532Z,84.00
2019-03-22T03:25:09.334Z,84.40
2019-03-22T03:28:14.957Z,84.60
2019-03-22T03:31:20.620Z,84.80
2019-03-22T03:34:26.381Z,84.80
2019-03-22T03:37:32.027Z,85.90
2019-03-22T03:40:37.772Z,85.30
2019-03-22T03:43:43.349Z,85.60
2019-03-22T03:46:48.931Z,86.00
2019-03-22T03:49:54.518Z,86.00
2019-03-22T03:53:00.346Z,86.10
2019-03-22T03:56:07.592Z,86.60
2019-03-22T03:59:13.108Z,86.70
2019-03-22T04:02:19.863Z,87.60
2019-03-22T04:05:27.770Z,87.20
2019-03-22T04:08:34.542Z,87.30
2019-03-22T04:11:40.323Z,87.00
2019-03-22T04:14:45.893Z,86.70
2019-03-22T04:17:51.421Z,86.50
2019-03-22T04:20:57.078Z,86.60
2019-03-22T04:24:02.824Z,86.70
2019-03-22T04:27:08.405Z,87.00
2019-03-22T04:30:14.490Z,87.20
2019-03-22T04:33:20.096Z,87.50
2019-03-22T04:36:25.696Z,87.50
2019-03-22T04:39:31.204Z,87.60
2019-03-22T04:42:36.738Z,87.80
2019-03-22T04:45:43.175Z,87.90
2019-03-22T04:48:49.901Z,88.20
2019-03-22T04:51:56.176Z,88.50
2019-03-22T04:55:02.927Z,88.70
2019-03-22T04:58:09.360Z,89.00
2019-03-22T05:01:16.546Z,88.80
2019-03-22T05:04:24.987Z,88.80
2019-03-22T05:07:30.757Z,88.70
2019-03-22T05:10:38.002Z,88.60
2019-03-22T05:13:45.203Z,88.80
2019-03-22T05:16:53.171Z,88.70
2019-03-22T05:19:59.213Z,88.80
2019-03-22T05:23:05.449Z,88.10
2019-03-22T05:26:12.503Z,88.30
2019-03-22T05:29:29.941Z,88.20
2019-03-22T05:32:26.673Z,88.00
2019-03-22T05:35:32.334Z,88.20
2019-03-22T05:38:37.922Z,88.60
2019-03-22T05:41:43.533Z,88.90
2019-03-22T05:44:49.144Z,89.00
2019-03-22T05:47:54.674Z,89.20
2019-03-22T05:51:00.176Z,89.40
2019-03-22T05:54:05.912Z,89.50
2019-03-22T05:57:13.712Z,89.70
2019-03-22T06:00:18.763Z,89.70
2019-03-22T06:03:24.368Z,89.60
2019-03-22T06:06:30.016Z,90.10
2019-03-22T06:09:35.534Z,89.50
2019-03-22T06:12:41.315Z,89.60
2019-03-22T06:15:46.896Z,89.40
2019-03-22T06:18:52.573Z,89.50
2019-03-22T06:21:58.258Z,89.70
2019-03-22T06:25:04.239Z,89.70
2019-03-22T06:28:09.812Z,89.40
2019-03-22T06:31:15.475Z,89.40
2019-03-22T06:34:21.188Z,89.60
2019-03-22T06:37:26.856Z,89.40
2019-03-22T06:40:32.444Z,89.30
2019-03-22T06:43:38.115Z,89.10
2019-03-22T06:46:43.683Z,89.10
2019-03-22T06:49:49.263Z,89.00
2019-03-22T06:52:56.619Z,88.80
2019-03-22T06:56:02.233Z,88.60
2019-03-22T06:59:07.866Z,88.50
2019-03-22T07:02:13.507Z,87.90
2019-03-22T07:05:19.113Z,87.90
2019-03-22T07:08:24.643Z,87.20
2019-03-22T07:11:31.237Z,87.00
2019-03-22T07:14:36.880Z,87.80
2019-03-22T07:17:42.471Z,88.00
2019-03-22T07:20:49.032Z,87.80
2019-03-22T07:23:56.013Z,88.20
2019-03-22T07:27:01.587Z,87.20
2019-03-22T07:30:18.173Z,86.90
2019-03-22T07:33:15.376Z,86.70
2019-03-22T07:36:20.956Z,86.50
2019-03-22T07:39:26.618Z,86.00
2019-03-22T07:42:32.593Z,85.60
2019-03-22T07:45:39.623Z,84.90
2019-03-22T07:48:45.111Z,83.70
2019-03-22T07:51:50.623Z,83.00
2019-03-22T07:54:56.288Z,82.20
2019-03-22T07:58:02.276Z,81.80
2019-03-22T08:01:07.948Z,81.20
2019-03-22T08:04:13.662Z,80.80
2019-03-22T08:07:19.316Z,80.60
2019-03-22T08:10:26.058Z,79.80
2019-03-22T08:13:33.209Z,79.40
2019-03-22T08:16:38.816Z,78.30
2019-03-22T08:19:44.533Z,77.60
2019-03-22T08:22:50.192Z,76.90
2019-03-22T08:25:55.934Z,75.70
2019-03-22T08:29:01.655Z,74.00
2019-03-22T08:32:07.422Z,74.70
2019-03-22T08:35:13.104Z,72.30
2019-03-22T08:38:18.623Z,70.80
2019-03-22T08:41:24.276Z,70.00
2019-03-22T08:44:29.866Z,68.40
2019-03-22T08:47:35.475Z,67.20
2019-03-22T08:50:41.243Z,67.20
2019-03-22T08:53:55.245Z,65.70
2019-03-22T08:56:54.147Z,64.90
2019-03-22T08:59:59.770Z,64.80
2019-03-22T09:03:05.482Z,64.40
2019-03-22T09:06:11.147Z,64.60
2019-03-22T09:09:16.811Z,63.80
2019-03-22T09:12:22.470Z,62.50
2019-03-22T09:15:40.273Z,62.20
2019-03-22T09:18:35.363Z,62.10
2019-03-22T09:21:40.916Z,61.70
2019-03-22T09:24:46.544Z,61.30
2019-03-22T09:27:52.207Z,61.50
2019-03-22T09:31:09.812Z,60.50
2019-03-22T09:34:05.227Z,60.00
2019-03-22T09:37:10.872Z,59.80
2019-03-22T09:40:16.592Z,59.30
2019-03-22T09:43:22.172Z,58.80
2019-03-22T09:46:27.844Z,58.10
2019-03-22T09:49:33.572Z,57.90
2019-03-22T09:52:39.243Z,57.60
2019-03-22T09:55:44.821Z,57.40
2019-03-22T09:58:50.498Z,57.00
2019-03-22T10:01:56.226Z,56.60
2019-03-22T10:05:01.829Z,55.90
2019-03-22T10:08:07.420Z,55.90
2019-03-22T10:11:13.074Z,55.00
2019-03-22T10:14:21.305Z,54.70
2019-03-22T10:17:25.933Z,54.70
2019-03-22T10:20:31.654Z,54.00
2019-03-22T10:23:37.415Z,52.50
2019-03-22T10:26:43.120Z,51.90
2019-03-22T10:29:48.803Z,51.50
2019-03-22T10:32:54.448Z,51.30
2019-03-22T10:36:00.043Z,50.80
2019-03-22T10:39:08.596Z,50.60
2019-03-22T10:42:14.247Z,50.00
2019-03-22T10:45:19.890Z,50.30
2019-03-22T10:48:25.551Z,50.10
2019-03-22T10:51:31.140Z,49.80
2019-03-22T10:54:36.788Z,49.50
2019-03-22T10:57:46.181Z,49.30
2019-03-22T11:00:51.827Z,49.40
2019-03-22T11:03:57.609Z,49.50
2019-03-22T11:07:03.455Z,49.30
2019-03-22T11:10:12.699Z,49.10
2019-03-22T11:13:17.851Z,49.20
2019-03-22T11:16:23.439Z,49.40
2019-03-22T11:19:29.028Z,49.20
2019-03-22T11:22:34.700Z,49.20
2019-03-22T11:25:40.287Z,49.10
2019-03-22T11:28:45.788Z,49.20
2019-03-22T11:31:51.379Z,49.10
2019-03-22T11:34:57.029Z,49.30
2019-03-22T11:38:02.634Z,49.60
2019-03-22T11:41:08.301Z,49.30
2019-03-22T11:44:13.951Z,49.20
2019-03-22T11:47:19.560Z,49.40
2019-03-22T11:50:25.216Z,49.70
2019-03-22T11:53:30.867Z,49.50
2019-03-22T11:56:36.436Z,49.40
2019-03-22T11:59:42.082Z,49.60
2019-03-22T12:02:47.688Z,49.60
2019-03-22T12:05:53.347Z,49.50
2019-03-22T12:08:59.008Z,49.80
2019-03-22T12:12:04.695Z,49.60
2019-03-22T12:15:10.608Z,49.60
2019-03-22T12:18:16.348Z,49.70
2019-03-22T12:21:21.943Z,49.40
2019-03-22T12:24:27.450Z,49.30
2019-03-22T12:27:36.913Z,49.10
2019-03-22T12:30:42.931Z,48.70
2019-03-22T12:33:50.575Z,48.70
2019-03-22T12:36:56.264Z,48.60
2019-03-22T12:40:01.952Z,48.60
2019-03-22T12:43:07.683Z,48.70
2019-03-22T12:46:13.451Z,49.10
2019-03-22T12:49:18.951Z,48.80
2019-03-22T12:52:24.579Z,48.80
2019-03-22T12:55:30.103Z,48.60
2019-03-22T12:58:36.068Z,48.30
2019-03-22T13:01:41.730Z,48.20
2019-03-22T13:04:47.381Z,48.20
2019-03-22T13:07:53.210Z,48.30
2019-03-22T13:10:58.814Z,48.30
2019-03-22T13:14:04.483Z,48.20
2019-03-22T13:17:10.168Z,48.20
2019-03-22T13:20:15.846Z,48.30
2019-03-22T13:23:21.369Z,48.40
2019-03-22T13:26:27.108Z,48.00
2019-03-22T13:29:32.611Z,47.90
2019-03-22T13:32:38.271Z,47.60
2019-03-22T13:35:43.786Z,47.50
2019-03-22T13:38:49.460Z,47.60
2019-03-22T13:41:55.147Z,47.80
2019-03-22T13:45:00.741Z,47.80
2019-03-22T13:48:06.331Z,47.90
2019-03-22T13:51:12.269Z,47.70
2019-03-22T13:54:17.839Z,48.00
2019-03-22T13:57:23.711Z,48.10
2019-03-22T14:00:31.408Z,48.20
2019-03-22T14:03:37.134Z,48.30
2019-03-22T14:06:42.956Z,48.00
2019-03-22T14:09:48.588Z,47.80
2019-03-22T14:12:54.107Z,47.70
2019-03-22T14:15:59.699Z,48.10
2019-03-22T14:19:05.306Z,47.90
2019-03-22T14:22:10.888Z,47.60
2019-03-22T14:25:16.547Z,47.60
2019-03-22T14:28:22.055Z,47.60
2019-03-22T14:31:27.636Z,47.60
2019-03-22T14:34:33.223Z,47.30
2019-03-22T14:37:38.900Z,47.00
2019-03-22T14:40:44.476Z,46.50
2019-03-22T14:43:50.043Z,46.50
2019-03-22T14:46:55.544Z,46.30
2019-03-22T14:50:01.128Z,46.20
2019-03-22T14:53:06.781Z,46.10
2019-03-22T14:56:13.685Z,45.60
2019-03-22T14:59:19.328Z,45.10
2019-03-22T15:02:24.920Z,44.60
2019-03-22T15:05:30.559Z,44.60
2019-03-22T15:08:36.440Z,43.80
2019-03-22T15:11:42.003Z,43.70
2019-03-22T15:14:57.469Z,44.20
2019-03-22T15:18:40.307Z,44.30
2019-03-22T15:22:23.036Z,45.00
2019-03-22T15:26:00.231Z,44.60
2019-03-22T15:29:27.716Z,45.00
2019-03-22T15:32:51.254Z,45.10
2019-03-22T15:36:22.033Z,45.10
2019-03-22T15:39:44.395Z,45.30
2019-03-22T15:42:50.886Z,45.40
2019-03-22T15:45:56.931Z,45.80
2019-03-22T15:49:03.278Z,46.40
2019-03-22T15:52:09.276Z,46.00
2019-03-22T15:55:15.733Z,45.80
2019-03-22T15:58:21.850Z,45.90
2019-03-22T16:01:27.675Z,46.00
2019-03-22T16:04:33.336Z,46.20
2019-03-22T16:07:38.971Z,46.40
2019-03-22T16:10:44.640Z,46.60
2019-03-22T16:13:50.492Z,46.70
2019-03-22T16:16:56.212Z,46.80
2019-03-22T16:20:01.799Z,47.00
2019-03-22T16:23:07.612Z,47.20
2019-03-22T16:26:13.374Z,47.20
2019-03-22T16:29:18.905Z,47.20
2019-03-22T16:32:24.479Z,47.10
2019-03-22T16:35:30.220Z,47.20
2019-03-22T16:38:35.884Z,48.30
2019-03-22T16:41:41.538Z,47.60
2019-03-22T16:44:47.193Z,47.70
2019-03-22T16:47:52.834Z,47.40
2019-03-22T16:50:58.487Z,47.90
2019-03-22T16:54:04.287Z,48.00
2019-03-22T16:57:10.111Z,48.20
2019-03-22T17:00:16.140Z,48.50
2019-03-22T17:03:21.850Z,48.90
2019-03-22T17:06:27.453Z,49.10
2019-03-22T17:09:33.113Z,49.50
2019-03-22T17:12:38.848Z,49.70
2019-03-22T17:15:44.410Z,50.00
2019-03-22T17:18:49.911Z,50.20
2019-03-22T17:21:55.496Z,50.60
2019-03-22T17:25:01.078Z,50.80
2019-03-22T17:28:09.091Z,51.00
2019-03-22T17:31:15.910Z,51.30
2019-03-22T17:34:23.997Z,51.50
2019-03-22T17:37:30.163Z,51.80
2019-03-22T17:40:36.180Z,51.90
2019-03-22T17:43:42.305Z,52.30
2019-03-22T17:46:47.947Z,52.50
2019-03-22T17:49:53.722Z,52.80
2019-03-22T17:52:59.223Z,53.00
2019-03-22T17:56:05.041Z,53.10
2019-03-22T17:59:11.014Z,53.40
2019-03-22T18:02:16.825Z,53.40
2019-03-22T18:05:22.409Z,53.70
2019-03-22T18:08:28.109Z,53.90
2019-03-22T18:11:33.720Z,54.00
2019-03-22T18:14:41.206Z,54.30
2019-03-22T18:17:46.776Z,54.60
2019-03-22T18:20:52.280Z,54.90
2019-03-22T18:23:57.891Z,55.10
2019-03-22T18:27:03.488Z,55.30
2019-03-22T18:30:09.347Z,55.60
2019-03-22T18:33:14.923Z,55.90
2019-03-22T18:36:20.535Z,56.10
2019-03-22T18:39:26.146Z,56.50
2019-03-22T18:42:31.651Z,57.40
2019-03-22T18:45:37.337Z,57.10
2019-03-22T18:48:42.987Z,57.50
2019-03-22T18:51:48.586Z,57.70
2019-03-22T18:54:54.194Z,57.80
2019-03-22T18:57:59.789Z,58.00
2019-03-22T19:01:05.483Z,58.20
2019-03-22T19:04:11.052Z,58.40
2019-03-22T19:07:17.263Z,58.50
2019-03-22T19:10:22.912Z,58.70
2019-03-22T19:13:30.970Z,59.10
2019-03-22T19:16:37.197Z,59.50
2019-03-22T19:19:43.119Z,59.70
2019-03-22T19:22:48.980Z,59.80
2019-03-22T19:25:54.814Z,60.00
2019-03-22T19:29:00.485Z,60.20
2019-03-22T19:32:13.395Z,60.70
2019-03-22T19:35:14.156Z,61.60
2019-03-22T19:38:19.867Z,62.50
2019-03-22T19:41:25.472Z,63.00
2019-03-22T19:44:31.079Z,63.30
2019-03-22T19:47:38.115Z,63.80
2019-03-22T19:50:43.859Z,64.00
2019-03-22T19:53:49.780Z,64.50
2019-03-22T19:56:55.835Z,64.90
2019-03-22T20:00:01.636Z,65.20
2019-03-22T20:03:07.844Z,65.50
2019-03-22T20:06:13.484Z,65.90
2019-03-22T20:09:19.136Z,66.30
2019-03-22T20:12:25.483Z,67.00
2019-03-22T20:15:31.459Z,67.60
2019-03-22T20:18:37.200Z,68.20
2019-03-22T20:21:43.486Z,68.70
2019-03-22T20:24:49.524Z,69.10
2019-03-22T20:27:55.503Z,69.40
2019-03-22T20:31:01.575Z,69.40
2019-03-22T20:34:07.445Z,69.70
2019-03-22T20:37:13.295Z,70.10
2019-03-22T20:40:19.242Z,70.60
2019-03-22T20:43:24.890Z,70.90
2019-03-22T20:46:30.490Z,71.40
2019-03-22T20:49:36.556Z,71.60
2019-03-22T20:52:42.257Z,71.70
2019-03-22T20:55:48.053Z,72.00
2019-03-22T20:58:53.708Z,72.50
2019-03-22T21:01:59.526Z,72.70
2019-03-22T21:05:05.612Z,73.00
2019-03-22T21:08:11.388Z,73.50
2019-03-22T21:11:17.140Z,73.70
2019-03-22T21:14:22.662Z,74.40
2019-03-22T21:17:28.250Z,74.70
2019-03-22T21:20:33.866Z,74.80
2019-03-22T21:23:39.408Z,75.10
2019-03-22T21:26:45.005Z,75.20
2019-03-22T21:29:50.708Z,75.30
2019-03-22T21:32:56.235Z,75.40
2019-03-22T21:36:01.753Z,75.50
2019-03-22T21:39:08.103Z,75.60
2019-03-22T21:42:13.825Z,75.60
2019-03-22T21:45:19.872Z,75.70
2019-03-22T21:48:26.659Z,76.10
2019-03-22T21:51:36.289Z,76.20
2019-03-22T21:54:42.223Z,76.20
2019-03-22T21:57:48.376Z,76.40
2019-03-22T22:00:54.301Z,76.30
2019-03-22T22:04:00.051Z,76.50
2019-03-22T22:07:05.745Z,77.00
2019-03-22T22:10:11.567Z,77.20
2019-03-22T22:13:17.332Z,77.40
2019-03-22T22:16:22.946Z,77.90
2019-03-22T22:19:28.559Z,78.20
2019-03-22T22:22:34.074Z,78.20
2019-03-22T22:25:39.659Z,78.40
2019-03-22T22:28:45.405Z,78.50
2019-03-22T22:31:53.159Z,78.80
2019-03-22T22:34:58.772Z,79.90
2019-03-22T22:38:04.443Z,79.30
2019-03-22T22:41:10.123Z,79.70
2019-03-22T22:44:15.719Z,80.00
2019-03-22T22:47:21.299Z,80.30
2019-03-22T22:50:26.844Z,80.60
2019-03-22T22:53:32.455Z,81.20
2019-03-22T22:56:38.055Z,81.20
2019-03-22T22:59:43.719Z,81.50
2019-03-22T23:02:49.380Z,81.90
2019-03-22T23:05:55.181Z,82.00
2019-03-22T23:09:00.888Z,82.40
2019-03-22T23:12:06.710Z,82.50
2019-03-22T23:15:12.607Z,82.80
2019-03-22T23:18:18.298Z,83.90
2019-03-22T23:21:24.011Z,83.30
2019-03-22T23:24:29.699Z,83.60
2019-03-22T23:27:35.370Z,83.80
2019-03-22T23:30:41.068Z,85.20
2019-03-22T23:33:46.710Z,85.50
2019-03-22T23:36:52.399Z,85.60
2019-03-22T23:39:57.927Z,85.80
2019-03-22T23:43:03.603Z,85.90
2019-03-22T23:46:09.284Z,86.20
2019-03-22T23:49:14.797Z,86.40
2019-03-22T23:52:20.494Z,86.80
2019-03-22T23:55:26.173Z,87.00
2019-03-22T23:58:31.864Z,87.30
